Aeroporto :
LOGIN :

Iscrizione | Disclaimer

   EN    FR    IT 

 










Sommario :    VFR   VFR Marginale   IFR   IFR Intensivo   IFR Molto Intensivo
Visibilità : 
Base nubi : 
>= 8 km
>= 3000ft
5 / 8 km
1000 / 3000 ft
1500m / 5 km
500 / 1000 ft
800 / 1500m
200 / 500 ft
< 800m
< 200 ft
Simboli :   Temporali  Nebbia  Neve Forte  Precipitazioni Forti  Vento > 20 kt
SIGMETs :   Varie  Temporali  Ghiacco  Turbolenza  Onda orograficha  Ceneri Vulcaniche






- Altitudine del aeroporto : 265 ft


ETSH - Holzdorf AB

ULTIMO METAR :
  • 280620Z 27012KT 4500 -RADZ BR BKN007 BKN010 02/01 Q1010 GRN

METARs OBSOLETI :
  • 280540Z 27008KT 4800 -RASN BR BKN008 BKN035 01/01 Q1009 GRN
  • 280520Z 28008KT 6000 -SNRA SCT023 BKN040 01/00 Q1009 WHT
  • 280441Z 27008KT 9999 -RASN BKN020 BKN030 01/00 Q1009 WHT
  • 280420Z 28007KT 9999 SCT030 BKN045 01/00 Q1008 BLU
  • 280320Z 27008KT 9999 SCT030 BKN045 BKN085 01/01 Q1007 BLU

Previsioni scadute.



MetMap, La meteo Aeronautica in un colpo d'occhio ! - Copyright ORBIFLY Dicembre 2007 - Disclaimer

ORBIFLY MET'MAP TEAM :

Programmazione e sviluppo : Alexandra Zaïnal
Concezione : Baudouin d'Aumeries
Aiuto per la programmazione : Marc-Olivier Méhu
Supporto tecnico e logistico : Manuel Goepfert
Aiuto per la traduzione : Arnaldo La Scala

Contatto : metmap@orbifly.com




FONTI E CREDITI :

   NOAA